SIA107 WMKK-WSSS
Flight info
| Callsign | SIA107 |
|---|---|
| Flight time | 0h 38m |
| Altitude | 27000 |
| Route | RUSBU1D RUSBU Y511 TOPOR A464 ARAMA DCT TEBUN TEBUN1A |
| Aircraft | B38M/M-SDE1FGHILORVWXY/HB1 |
Departure
| Time | 2026-05-04 13:42 |
|---|---|
| Airport | Kuala Lumpur International Airport (WMKK) |
Arrival
| Time | 2026-05-04 14:21 |
|---|---|
| Airport | Singapore Changi Airport (WSSS) |
| Time | Latitude | Longitude | Altitude | Speed | Heading |
|---|---|---|---|---|---|
| 2026-05-04 13:00 | 2.75484 | 101.70758 | 75 ft | 0 kts | 146° |
| 2026-05-04 13:28 | 2.75494 | 101.70751 | 66 ft | 3 kts | 146° |
| 2026-05-04 13:28 | 2.75511 | 101.70735 | 68 ft | 4 kts | 102° |
| 2026-05-04 13:28 | 2.75505 | 101.70712 | 71 ft | 4 kts | 57° |
| 2026-05-04 13:28 | 2.75499 | 101.70702 | 69 ft | 1 kts | 56° |
| 2026-05-04 13:33 | 2.75508 | 101.70715 | 69 ft | 5 kts | 56° |
| 2026-05-04 13:33 | 2.75544 | 101.70771 | 73 ft | 14 kts | 57° |
| 2026-05-04 13:34 | 2.75620 | 101.70883 | 71 ft | 25 kts | 56° |
| 2026-05-04 13:34 | 2.75711 | 101.71028 | 75 ft | 17 kts | 80° |
| 2026-05-04 13:34 | 2.75636 | 101.71116 | 71 ft | 18 kts | 147° |
| 2026-05-04 13:34 | 2.75524 | 101.71190 | 75 ft | 20 kts | 147° |
| 2026-05-04 13:35 | 2.75407 | 101.71275 | 71 ft | 20 kts | 123° |
| 2026-05-04 13:35 | 2.75452 | 101.71383 | 73 ft | 0 kts | 56° |
| 2026-05-04 13:38 | 2.75455 | 101.71388 | 73 ft | 3 kts | 57° |
| 2026-05-04 13:38 | 2.75487 | 101.71437 | 71 ft | 15 kts | 56° |
| 2026-05-04 13:38 | 2.75485 | 101.71545 | 72 ft | 20 kts | 152° |
| 2026-05-04 13:39 | 2.75358 | 101.71628 | 71 ft | 23 kts | 146° |
| 2026-05-04 13:39 | 2.75223 | 101.71719 | 75 ft | 24 kts | 146° |
| 2026-05-04 13:39 | 2.75079 | 101.71814 | 76 ft | 25 kts | 146° |
| 2026-05-04 13:39 | 2.74933 | 101.71912 | 81 ft | 25 kts | 146° |
| 2026-05-04 13:40 | 2.74786 | 101.72010 | 81 ft | 17 kts | 146° |
| 2026-05-04 13:40 | 2.74763 | 101.72077 | 81 ft | 12 kts | 73° |
| 2026-05-04 13:40 | 2.74780 | 101.72108 | 82 ft | 0 kts | 57° |
| 2026-05-04 13:41 | 2.74782 | 101.72112 | 81 ft | 3 kts | 57° |
| 2026-05-04 13:41 | 2.74814 | 101.72160 | 82 ft | 15 kts | 55° |
| 2026-05-04 13:42 | 2.74968 | 101.72120 | 82 ft | 31 kts | 326° |
| 2026-05-04 13:42 | 2.75417 | 101.71817 | 72 ft | 122 kts | 326° |
| 2026-05-04 13:42 | 2.76326 | 101.71203 | 218 ft | 183 kts | 324° |
| 2026-05-04 13:42 | 2.77446 | 101.70428 | 983 ft | 197 kts | 326° |
| 2026-05-04 13:43 | 2.78559 | 101.69689 | 2211 ft | 198 kts | 326° |
| 2026-05-04 13:43 | 2.79823 | 101.68917 | 2770 ft | 228 kts | 335° |
| 2026-05-04 13:43 | 2.81355 | 101.68348 | 3606 ft | 240 kts | 340° |
| 2026-05-04 13:43 | 2.82950 | 101.67792 | 4647 ft | 251 kts | 340° |
| 2026-05-04 13:44 | 2.84657 | 101.67197 | 5423 ft | 268 kts | 340° |
| 2026-05-04 13:44 | 2.86452 | 101.66572 | 6398 ft | 275 kts | 341° |
| 2026-05-04 13:44 | 2.88287 | 101.66003 | 7405 ft | 280 kts | 351° |
| 2026-05-04 13:44 | 2.90222 | 101.66118 | 8389 ft | 282 kts | 18° |
| 2026-05-04 13:45 | 2.91942 | 101.67081 | 9324 ft | 289 kts | 43° |
| 2026-05-04 13:45 | 2.93120 | 101.68711 | 10246 ft | 293 kts | 65° |
| 2026-05-04 13:45 | 2.93938 | 101.70630 | 10833 ft | 310 kts | 75° |
| 2026-05-04 13:45 | 2.93991 | 101.72821 | 11383 ft | 325 kts | 104° |
| 2026-05-04 13:46 | 2.92957 | 101.74845 | 12033 ft | 335 kts | 131° |
| 2026-05-04 13:46 | 2.91110 | 101.76320 | 12777 ft | 342 kts | 144° |
| 2026-05-04 13:46 | 2.89258 | 101.77827 | 13612 ft | 345 kts | 138° |
| 2026-05-04 13:46 | 2.87425 | 101.79401 | 14330 ft | 349 kts | 139° |
| 2026-05-04 13:47 | 2.85565 | 101.80984 | 15051 ft | 352 kts | 139° |
| 2026-05-04 13:47 | 2.83686 | 101.82577 | 15739 ft | 356 kts | 139° |
| 2026-05-04 13:47 | 2.81789 | 101.84181 | 16425 ft | 359 kts | 139° |
| 2026-05-04 13:47 | 2.79896 | 101.85779 | 17089 ft | 362 kts | 138° |
| 2026-05-04 13:48 | 2.77964 | 101.87411 | 17751 ft | 366 kts | 138° |
| 2026-05-04 13:48 | 2.76008 | 101.89061 | 18359 ft | 369 kts | 138° |
| 2026-05-04 13:48 | 2.74014 | 101.90744 | 18900 ft | 372 kts | 138° |
| 2026-05-04 13:48 | 2.72056 | 101.92396 | 19426 ft | 375 kts | 138° |
| 2026-05-04 13:49 | 2.70050 | 101.94089 | 19953 ft | 378 kts | 138° |
| 2026-05-04 13:49 | 2.68041 | 101.95783 | 20466 ft | 381 kts | 138° |
| 2026-05-04 13:49 | 2.66006 | 101.97500 | 20975 ft | 384 kts | 138° |
| 2026-05-04 13:49 | 2.63960 | 101.99225 | 21477 ft | 387 kts | 138° |
| 2026-05-04 13:50 | 2.61891 | 102.00970 | 21975 ft | 390 kts | 139° |
| 2026-05-04 13:50 | 2.59808 | 102.02728 | 22468 ft | 393 kts | 139° |
| 2026-05-04 13:50 | 2.57705 | 102.04502 | 22827 ft | 398 kts | 138° |
| 2026-05-04 13:50 | 2.55590 | 102.06285 | 22869 ft | 397 kts | 139° |
| 2026-05-04 13:51 | 2.53476 | 102.08067 | 22880 ft | 397 kts | 139° |
| 2026-05-04 13:51 | 2.51363 | 102.09846 | 22887 ft | 397 kts | 139° |
| 2026-05-04 13:51 | 2.49279 | 102.11602 | 22888 ft | 397 kts | 139° |
| 2026-05-04 13:51 | 2.47170 | 102.13379 | 22892 ft | 397 kts | 139° |
| 2026-05-04 13:52 | 2.42855 | 102.17028 | 22894 ft | 417 kts | 138° |
| 2026-05-04 13:52 | 2.40617 | 102.18920 | 22885 ft | 424 kts | 139° |
| 2026-05-04 13:52 | 2.38360 | 102.20824 | 22886 ft | 426 kts | 139° |
| 2026-05-04 13:53 | 2.36092 | 102.22735 | 22879 ft | 426 kts | 139° |
| 2026-05-04 13:53 | 2.33819 | 102.24648 | 22888 ft | 426 kts | 139° |
| 2026-05-04 13:53 | 2.31547 | 102.26561 | 22874 ft | 426 kts | 139° |
| 2026-05-04 13:54 | 2.27009 | 102.30379 | 22877 ft | 427 kts | 139° |
| 2026-05-04 13:54 | 2.24737 | 102.32291 | 22888 ft | 426 kts | 139° |
| 2026-05-04 13:54 | 2.20205 | 102.36105 | 22884 ft | 425 kts | 139° |
| 2026-05-04 13:55 | 2.17936 | 102.38014 | 22891 ft | 425 kts | 139° |
| 2026-05-04 13:55 | 2.13409 | 102.41823 | 22897 ft | 425 kts | 139° |
| 2026-05-04 13:55 | 2.11173 | 102.43704 | 22894 ft | 426 kts | 139° |
| 2026-05-04 13:56 | 2.08906 | 102.45611 | 22914 ft | 426 kts | 139° |
| 2026-05-04 13:56 | 2.06637 | 102.47519 | 22904 ft | 426 kts | 139° |
| 2026-05-04 13:56 | 2.02174 | 102.51409 | 22889 ft | 424 kts | 130° |
| 2026-05-04 13:57 | 2.00387 | 102.53747 | 22904 ft | 424 kts | 126° |
| 2026-05-04 13:57 | 1.98603 | 102.56092 | 22893 ft | 424 kts | 126° |
| 2026-05-04 13:58 | 1.93273 | 102.63153 | 22904 ft | 424 kts | 127° |
| 2026-05-04 13:58 | 1.89723 | 102.67861 | 22900 ft | 424 kts | 126° |
| 2026-05-04 13:58 | 1.87949 | 102.70213 | 22899 ft | 424 kts | 126° |
| 2026-05-04 13:59 | 1.86179 | 102.72566 | 22905 ft | 424 kts | 126° |
| 2026-05-04 13:59 | 1.85005 | 102.74125 | 22901 ft | 423 kts | 126° |
| 2026-05-04 13:59 | 1.81461 | 102.78831 | 22892 ft | 423 kts | 126° |
| 2026-05-04 14:00 | 1.79692 | 102.81179 | 22893 ft | 423 kts | 126° |
| 2026-05-04 14:00 | 1.76147 | 102.85883 | 22893 ft | 423 kts | 126° |
| 2026-05-04 14:00 | 1.74375 | 102.88234 | 22888 ft | 423 kts | 126° |
| 2026-05-04 14:01 | 1.72859 | 102.90693 | 22904 ft | 421 kts | 117° |
| 2026-05-04 14:01 | 1.71485 | 102.93278 | 22888 ft | 422 kts | 117° |
| 2026-05-04 14:01 | 1.68760 | 102.98382 | 22595 ft | 406 kts | 117° |
| 2026-05-04 14:02 | 1.67450 | 103.00839 | 22358 ft | 396 kts | 117° |
| 2026-05-04 14:02 | 1.66171 | 103.03238 | 22127 ft | 387 kts | 117° |
| 2026-05-04 14:02 | 1.64913 | 103.05598 | 21887 ft | 384 kts | 117° |
| 2026-05-04 14:02 | 1.63656 | 103.07955 | 21641 ft | 383 kts | 117° |
| 2026-05-04 14:03 | 1.62307 | 103.10241 | 21392 ft | 382 kts | 127° |
| 2026-05-04 14:03 | 1.60386 | 103.12062 | 21150 ft | 383 kts | 144° |
| 2026-05-04 14:03 | 1.58012 | 103.13266 | 20934 ft | 385 kts | 155° |
| 2026-05-04 14:03 | 1.55547 | 103.14306 | 20694 ft | 384 kts | 155° |
| 2026-05-04 14:04 | 1.50625 | 103.16317 | 20216 ft | 380 kts | 156° |
| 2026-05-04 14:04 | 1.48178 | 103.17299 | 19741 ft | 379 kts | 156° |
| 2026-05-04 14:04 | 1.45722 | 103.18278 | 19256 ft | 380 kts | 156° |
| 2026-05-04 14:05 | 1.40827 | 103.20224 | 18411 ft | 377 kts | 156° |
| 2026-05-04 14:05 | 1.38513 | 103.21441 | 17612 ft | 376 kts | 140° |
| 2026-05-04 14:05 | 1.36592 | 103.23163 | 17054 ft | 365 kts | 137° |
| 2026-05-04 14:06 | 1.34707 | 103.24797 | 16616 ft | 352 kts | 138° |
| 2026-05-04 14:06 | 1.32873 | 103.26364 | 16204 ft | 343 kts | 139° |
| 2026-05-04 14:06 | 1.31080 | 103.27883 | 15802 ft | 342 kts | 139° |
| 2026-05-04 14:06 | 1.29264 | 103.29412 | 15406 ft | 341 kts | 139° |
| 2026-05-04 14:07 | 1.27455 | 103.30932 | 15028 ft | 339 kts | 139° |
| 2026-05-04 14:07 | 1.25651 | 103.32444 | 14654 ft | 338 kts | 139° |
| 2026-05-04 14:07 | 1.23848 | 103.33955 | 14266 ft | 337 kts | 140° |
| 2026-05-04 14:07 | 1.22056 | 103.35457 | 13884 ft | 336 kts | 140° |
| 2026-05-04 14:08 | 1.20265 | 103.36958 | 13490 ft | 335 kts | 140° |
| 2026-05-04 14:08 | 1.18481 | 103.38452 | 13072 ft | 334 kts | 140° |
| 2026-05-04 14:08 | 1.16704 | 103.39942 | 12682 ft | 332 kts | 140° |
| 2026-05-04 14:08 | 1.14939 | 103.41422 | 12307 ft | 330 kts | 140° |
| 2026-05-04 14:09 | 1.11443 | 103.44351 | 11643 ft | 324 kts | 140° |
| 2026-05-04 14:09 | 1.09741 | 103.45777 | 11305 ft | 323 kts | 140° |
| 2026-05-04 14:10 | 1.06253 | 103.48700 | 10678 ft | 326 kts | 140° |
| 2026-05-04 14:10 | 1.04539 | 103.50135 | 10538 ft | 317 kts | 140° |
| 2026-05-04 14:10 | 1.03079 | 103.51725 | 10235 ft | 308 kts | 118° |
| 2026-05-04 14:10 | 1.02496 | 103.53741 | 9745 ft | 302 kts | 93° |
| 2026-05-04 14:11 | 1.02668 | 103.55805 | 9284 ft | 295 kts | 76° |
| 2026-05-04 14:11 | 1.03487 | 103.59794 | 8631 ft | 290 kts | 79° |
| 2026-05-04 14:11 | 1.03868 | 103.61741 | 8311 ft | 282 kts | 79° |
| 2026-05-04 14:12 | 1.04248 | 103.63637 | 8006 ft | 274 kts | 78° |
| 2026-05-04 14:12 | 1.04619 | 103.65477 | 7721 ft | 267 kts | 78° |
| 2026-05-04 14:12 | 1.05348 | 103.69122 | 7163 ft | 274 kts | 78° |
| 2026-05-04 14:13 | 1.05722 | 103.71000 | 6868 ft | 277 kts | 78° |
| 2026-05-04 14:13 | 1.06101 | 103.72893 | 6563 ft | 278 kts | 78° |
| 2026-05-04 14:13 | 1.06479 | 103.74782 | 6316 ft | 275 kts | 78° |
| 2026-05-04 14:13 | 1.06851 | 103.76633 | 6159 ft | 268 kts | 78° |
| 2026-05-04 14:14 | 1.07212 | 103.78427 | 6018 ft | 258 kts | 78° |
| 2026-05-04 14:14 | 1.07939 | 103.81716 | 5752 ft | 225 kts | 65° |
| 2026-05-04 14:14 | 1.08745 | 103.82993 | 5593 ft | 211 kts | 51° |
| 2026-05-04 14:15 | 1.10566 | 103.85279 | 5084 ft | 213 kts | 50° |
| 2026-05-04 14:15 | 1.12418 | 103.87564 | 4541 ft | 210 kts | 50° |
| 2026-05-04 14:16 | 1.14739 | 103.89221 | 4046 ft | 205 kts | 22° |
| 2026-05-04 14:16 | 1.16036 | 103.89756 | 3791 ft | 197 kts | 22° |
| 2026-05-04 14:17 | 1.18522 | 103.90802 | 3315 ft | 192 kts | 22° |
| 2026-05-04 14:17 | 1.19751 | 103.91323 | 3082 ft | 191 kts | 22° |
| 2026-05-04 14:17 | 1.22167 | 103.92348 | 2617 ft | 184 kts | 22° |
| 2026-05-04 14:18 | 1.23332 | 103.92842 | 2375 ft | 180 kts | 22° |
| 2026-05-04 14:18 | 1.25610 | 103.93809 | 1914 ft | 177 kts | 23° |
| 2026-05-04 14:19 | 1.27844 | 103.94756 | 1497 ft | 169 kts | 23° |
| 2026-05-04 14:19 | 1.28874 | 103.95193 | 1290 ft | 152 kts | 25° |
| 2026-05-04 14:19 | 1.29812 | 103.95590 | 1078 ft | 145 kts | 23° |
| 2026-05-04 14:19 | 1.30722 | 103.95977 | 893 ft | 143 kts | 23° |
| 2026-05-04 14:20 | 1.31637 | 103.96365 | 734 ft | 142 kts | 23° |
| 2026-05-04 14:20 | 1.32545 | 103.96750 | 571 ft | 141 kts | 23° |
| 2026-05-04 14:20 | 1.33448 | 103.97134 | 383 ft | 141 kts | 23° |
| 2026-05-04 14:21 | 1.35233 | 103.97890 | 47 ft | 134 kts | 20° |
| 2026-05-04 14:21 | 1.35993 | 103.98208 | 33 ft | 92 kts | 23° |
| 2026-05-04 14:21 | 1.36390 | 103.98375 | 33 ft | 40 kts | 23° |
| 2026-05-04 14:21 | 1.36540 | 103.98451 | 33 ft | 19 kts | 25° |
| 2026-05-04 14:22 | 1.36655 | 103.98523 | 33 ft | 20 kts | 40° |
| 2026-05-04 14:22 | 1.36725 | 103.98592 | 33 ft | 4 kts | 50° |
| 2026-05-04 14:22 | 1.36747 | 103.98624 | 33 ft | 8 kts | 63° |
| 2026-05-04 14:22 | 1.36710 | 103.98692 | 33 ft | 16 kts | 165° |
| 2026-05-04 14:23 | 1.36564 | 103.98643 | 33 ft | 4 kts | 203° |
| 2026-05-04 14:23 | 1.36528 | 103.98627 | 33 ft | 7 kts | 203° |
| 2026-05-04 14:23 | 1.36472 | 103.98608 | 33 ft | 11 kts | 185° |
| 2026-05-04 14:24 | 1.36408 | 103.98675 | 33 ft | 18 kts | 113° |
| 2026-05-04 14:24 | 1.36322 | 103.98738 | 33 ft | 14 kts | 211° |
| 2026-05-04 14:24 | 1.36234 | 103.98701 | 33 ft | 15 kts | 202° |
| 2026-05-04 14:24 | 1.36146 | 103.98683 | 33 ft | 5 kts | 139° |
| 2026-05-04 14:25 | 1.36125 | 103.98718 | 33 ft | 4 kts | 114° |
| 2026-05-04 14:25 | 1.36111 | 103.98750 | 33 ft | 0 kts | 114° |
| 2026-05-04 14:25 | 1.36110 | 103.98751 | 33 ft | 0 kts | 114° |